Time;durP1;ratioP1;P1;durP2;ratioP2;P2;SDS_P1;SDS_P2;PMS_P1;PMS_P2;Temp;Humidity;BMP_temperature;BMP_pressure;BME280_temperature;BME280_humidity;BME280_pressure;Samples;Min_cycle;Max_cycle;Signal;HPM_P1;HPM_P2
2021/10/12 00:00:07;;;;;;;34.00;19.70;;;;;;;6.58;70.90;96749.73;115456;1198;27442;-87
2021/10/12 00:02:55;;;;;;;34.40;20.10;;;;;;;6.60;70.89;96747.32;115433;1196;28698;-87
2021/10/12 00:05:23;;;;;;;28.40;19.10;;;;;;;6.62;70.88;96746.73;115477;1198;28201;-87
2021/10/12 00:07:52;;;;;;;28.20;18.00;;;;;;;6.63;71.02;96742.90;115461;1198;28222;-87
2021/10/12 00:10:20;;;;;;;27.50;17.00;;;;;;;6.63;70.91;96745.32;115445;1199;29122;-87
2021/10/12 00:12:48;;;;;;;33.70;18.90;;;;;;;6.66;70.86;96743.65;115511;1191;24245;-86
2021/10/12 00:15:16;;;;;;;28.40;18.40;;;;;;;6.69;71.07;96740.93;115530;1199;27559;-88
2021/10/12 00:17:44;;;;;;;32.80;19.30;;;;;;;6.70;70.96;96739.73;115484;1192;25297;-88
2021/10/12 00:20:12;;;;;;;29.90;18.50;;;;;;;6.70;70.96;96739.35;115379;1195;28314;-87
2021/10/12 00:22:40;;;;;;;30.20;19.00;;;;;;;6.69;71.04;96737.03;115410;1199;31612;-88
2021/10/12 00:25:09;;;;;;;31.20;18.90;;;;;;;6.69;71.11;96731.02;115438;1199;31947;-88
2021/10/12 00:27:37;;;;;;;32.90;18.20;;;;;;;6.72;71.01;96733.21;115422;1198;27877;-87
2021/10/12 00:30:07;;;;;;;30.10;17.80;;;;;;;6.74;71.27;96730.34;115422;1199;28118;-88
2021/10/12 00:32:35;;;;;;;29.70;16.70;;;;;;;6.77;71.09;96729.69;115425;1199;28068;-87
2021/10/12 00:35:05;;;;;;;27.10;17.50;;;;;;;6.79;71.06;96723.27;115467;1199;29449;-86
2021/10/12 00:37:33;;;;;;;27.60;17.40;;;;;;;6.82;71.22;96723.55;115381;1199;25807;-86
2021/10/12 00:40:01;;;;;;;29.90;18.30;;;;;;;6.87;71.14;96725.48;115398;1199;31325;-87
2021/10/12 00:42:30;;;;;;;32.60;19.20;;;;;;;6.89;71.31;96722.81;115436;1192;27986;-87
2021/10/12 00:44:59;;;;;;;35.30;19.00;;;;;;;6.91;71.09;96722.80;115416;1192;27652;-87
2021/10/12 00:47:27;;;;;;;33.00;19.00;;;;;;;6.92;71.27;96720.59;115449;1192;27351;-86
2021/10/12 00:49:55;;;;;;;29.30;19.30;;;;;;;6.95;71.41;96715.77;115390;1199;27527;-88
2021/10/12 00:52:23;;;;;;;30.30;19.50;;;;;;;6.94;71.47;96712.69;115380;1199;26285;-87
2021/10/12 00:54:51;;;;;;;31.30;19.20;;;;;;;6.92;71.50;96711.25;115301;1199;27050;-88
2021/10/12 00:57:19;;;;;;;28.80;19.80;;;;;;;6.85;71.56;96713.71;115424;1199;25680;-87
2021/10/12 00:59:47;;;;;;;33.30;20.30;;;;;;;6.81;72.11;96712.42;115507;1194;26841;-87
2021/10/12 01:02:15;;;;;;;29.90;19.20;;;;;;;6.83;72.17;96712.65;115425;1199;25604;-87
2021/10/12 01:04:43;;;;;;;28.90;19.80;;;;;;;6.85;72.42;96711.92;115452;1199;27612;-87
2021/10/12 01:07:11;;;;;;;29.90;20.30;;;;;;;6.85;72.70;96711.35;115390;1199;28110;-87
2021/10/12 01:09:41;;;;;;;33.40;22.20;;;;;;;6.81;72.72;96706.64;115411;1193;25696;-88
2021/10/12 01:12:09;;;;;;;35.30;22.50;;;;;;;6.81;72.93;96703.85;115416;1184;34859;-86
2021/10/12 01:14:37;;;;;;;35.30;24.20;;;;;;;6.78;73.26;96702.83;115495;1192;24665;-86
2021/10/12 01:17:04;;;;;;;34.30;22.60;;;;;;;6.74;73.17;96699.88;115363;1199;26686;-87
2021/10/12 01:19:34;;;;;;;33.30;22.20;;;;;;;6.72;73.61;96694.69;115356;1199;30525;-86
2021/10/12 01:22:02;;;;;;;35.50;21.50;;;;;;;6.69;73.71;96692.61;115492;1198;29188;-86
2021/10/12 01:24:31;;;;;;;30.60;18.90;;;;;;;6.65;74.03;96691.54;115455;1199;25287;-87
2021/10/12 01:26:59;;;;;;;36.80;22.90;;;;;;;6.63;74.07;96690.89;115419;1199;25390;-87
2021/10/12 01:29:27;;;;;;;35.30;22.60;;;;;;;6.62;74.21;96688.70;115314;1193;30326;-88
2021/10/12 01:31:55;;;;;;;36.50;22.20;;;;;;;6.61;74.31;96686.34;115401;1199;25312;-87
2021/10/12 01:34:42;;;;;;;32.60;22.30;;;;;;;6.58;74.28;96686.73;115367;1199;41721;-87
2021/10/12 01:37:10;;;;;;;32.00;21.70;;;;;;;6.56;74.42;96685.18;115407;1184;24416;-87
2021/10/12 01:39:38;;;;;;;37.20;22.90;;;;;;;6.61;74.82;96687.51;115392;1194;28712;-87
2021/10/12 01:42:07;;;;;;;33.40;18.90;;;;;;;6.68;75.01;96686.61;115388;1199;47487;-87
2021/10/12 01:44:35;;;;;;;29.00;19.80;;;;;;;6.71;75.73;96678.56;115423;1198;28504;-87
2021/10/12 01:47:04;;;;;;;32.60;20.80;;;;;;;6.70;76.40;96676.08;115299;1199;27593;-87
2021/10/12 01:49:32;;;;;;;30.90;22.80;;;;;;;6.65;76.98;96675.42;115376;1199;26125;-87
2021/10/12 01:52:00;;;;;;;34.80;20.50;;;;;;;6.59;77.07;96675.73;115298;1200;27676;-88
2021/10/12 01:54:28;;;;;;;34.00;20.30;;;;;;;6.55;77.57;96678.65;115396;1199;25715;-87
2021/10/12 01:56:57;;;;;;;31.80;18.90;;;;;;;6.52;78.28;96671.77;115387;1198;26268;-87
2021/10/12 01:59:25;;;;;;;29.60;20.50;;;;;;;6.49;78.63;96673.02;115458;1192;41866;-86
2021/10/12 02:01:53;;;;;;;33.80;19.70;;;;;;;6.47;79.04;96671.09;115366;1198;26641;-87
2021/10/12 02:04:22;;;;;;;30.00;19.40;;;;;;;6.45;79.23;96669.44;115490;1192;26496;-85
2021/10/12 02:06:50;;;;;;;32.40;19.20;;;;;;;6.43;79.41;96669.05;115401;1194;27863;-87
2021/10/12 02:09:19;;;;;;;32.50;21.40;;;;;;;6.42;79.85;96665.31;115520;1192;28057;-87
2021/10/12 02:11:57;;;;;;;31.10;19.30;;;;;;;6.40;80.09;96663.66;115580;1199;26481;-87
2021/10/12 02:14:25;;;;;;;30.50;19.90;;;;;;;6.38;80.38;96662.75;115432;1198;36518;-87
2021/10/12 02:16:53;;;;;;;28.30;19.30;;;;;;;6.37;80.50;96661.01;115405;1199;25420;-87
2021/10/12 02:19:21;;;;;;;29.90;20.00;;;;;;;6.34;80.72;96657.04;115288;1200;27219;-87
2021/10/12 02:21:49;;;;;;;29.70;20.80;;;;;;;6.32;80.65;96654.48;115372;1199;36957;-88
2021/10/12 02:24:18;;;;;;;25.20;16.90;;;;;;;6.38;80.76;96655.91;115581;1198;25821;-87
2021/10/12 02:26:46;;;;;;;29.10;17.70;;;;;;;6.39;80.84;96653.96;115546;1194;25448;-87
2021/10/12 02:29:14;;;;;;;25.70;17.50;;;;;;;6.40;80.95;96657.29;115457;1198;37665;-87
2021/10/12 02:31:42;;;;;;;22.10;14.70;;;;;;;6.44;81.11;96662.00;115444;1199;27102;-87
2021/10/12 02:34:10;;;;;;;23.30;13.70;;;;;;;6.49;81.49;96654.80;115405;1198;25522;-87
2021/10/12 02:36:39;;;;;;;19.40;12.50;;;;;;;6.50;82.26;96656.98;115482;1198;26365;-87
2021/10/12 02:39:07;;;;;;;18.00;11.20;;;;;;;6.47;82.57;96659.55;115429;1199;27133;-88
2021/10/12 02:41:35;;;;;;;18.50;9.90;;;;;;;6.46;82.83;96654.06;115312;1200;27142;-88
2021/10/12 02:44:03;;;;;;;16.10;10.00;;;;;;;6.43;83.07;96655.20;115408;1199;26517;-87
2021/10/12 02:46:31;;;;;;;17.80;10.70;;;;;;;6.43;83.37;96653.63;115531;1198;25752;-87
2021/10/12 02:48:59;;;;;;;17.80;11.10;;;;;;;6.41;83.94;96651.71;115454;1199;28121;-87
2021/10/12 02:51:27;;;;;;;18.70;10.20;;;;;;;6.39;84.15;96653.13;115510;1199;41094;-86
2021/10/12 02:53:55;;;;;;;16.30;10.40;;;;;;;6.40;84.10;96648.65;115438;1197;27343;-88
2021/10/12 02:56:23;;;;;;;16.70;10.80;;;;;;;6.41;84.31;96645.02;115272;1200;25389;-88
2021/10/12 02:58:51;;;;;;;18.10;11.70;;;;;;;6.42;84.52;96647.67;115433;1199;25135;-88
2021/10/12 03:01:19;;;;;;;17.80;12.40;;;;;;;6.43;84.32;96647.94;115412;1199;25183;-88
2021/10/12 03:03:47;;;;;;;18.20;11.40;;;;;;;6.45;84.30;96653.58;115496;1193;24861;-87
2021/10/12 03:06:15;;;;;;;14.60;11.00;;;;;;;6.48;83.99;96648.25;115474;1199;26075;-87
2021/10/12 03:08:43;;;;;;;17.30;11.00;;;;;;;6.51;84.07;96648.33;115501;1198;25116;-87
2021/10/12 03:11:12;;;;;;;14.20;9.90;;;;;;;6.54;83.89;96645.14;115377;1199;27734;-86
2021/10/12 03:13:40;;;;;;;15.00;10.40;;;;;;;6.58;83.93;96645.84;115361;1199;37530;-87
2021/10/12 03:16:08;;;;;;;18.40;11.30;;;;;;;6.57;84.03;96641.99;115415;1199;29634;-87
2021/10/12 03:18:36;;;;;;;16.70;11.50;;;;;;;6.59;83.91;96645.58;115384;1199;27506;-87
2021/10/12 03:21:05;;;;;;;19.50;12.30;;;;;;;6.61;83.61;96642.39;115345;1199;26936;-88
2021/10/12 03:23:34;;;;;;;17.10;12.60;;;;;;;6.63;83.78;96643.11;115389;1199;31225;-87
2021/10/12 03:26:02;;;;;;;19.60;12.60;;;;;;;6.67;83.88;96638.81;115379;1193;26612;-87
2021/10/12 03:28:30;;;;;;;20.80;14.80;;;;;;;6.70;84.17;96638.14;115397;1199;30987;-88
2021/10/12 03:30:58;;;;;;;23.10;16.30;;;;;;;6.71;84.35;96636.98;115425;1199;34995;-88
2021/10/12 03:33:26;;;;;;;19.40;14.50;;;;;;;6.69;84.42;96639.14;115379;1198;29394;-87
2021/10/12 03:35:56;;;;;;;24.70;16.60;;;;;;;6.69;84.68;96635.45;115482;1199;31150;-87
2021/10/12 03:38:26;;;;;;;23.20;15.70;;;;;;;6.69;84.69;96636.19;115474;1199;27909;-87
2021/10/12 03:40:55;;;;;;;25.50;17.10;;;;;;;6.69;85.03;96635.92;115311;1199;27010;-88
2021/10/12 03:43:24;;;;;;;22.90;15.50;;;;;;;6.67;85.15;96636.81;115523;1199;27725;-88
2021/10/12 03:45:52;;;;;;;21.80;14.70;;;;;;;6.67;85.27;96635.13;115552;1199;30458;-88
2021/10/12 03:48:20;;;;;;;25.90;16.00;;;;;;;6.67;85.27;96633.48;115460;1199;27216;-88
2021/10/12 03:50:48;;;;;;;24.20;16.80;;;;;;;6.67;85.26;96628.64;115433;1199;27605;-88
2021/10/12 03:53:16;;;;;;;23.60;16.20;;;;;;;6.67;85.43;96630.86;115528;1199;25993;-88
2021/10/12 03:55:45;;;;;;;22.00;16.10;;;;;;;6.68;85.47;96629.92;115510;1199;27127;-87
2021/10/12 03:58:13;;;;;;;20.10;13.70;;;;;;;6.67;85.13;96628.23;115268;1199;30725;-87
2021/10/12 04:00:41;;;;;;;23.60;16.80;;;;;;;6.69;85.10;96628.48;115379;1199;26993;-87
2021/10/12 04:03:09;;;;;;;22.80;15.90;;;;;;;6.69;84.72;96622.33;115400;1199;28514;-88
2021/10/12 04:05:37;;;;;;;26.70;17.20;;;;;;;6.71;84.74;96622.35;115255;1199;29082;-88
2021/10/12 04:08:05;;;;;;;27.20;16.20;;;;;;;6.74;84.67;96621.09;115365;1199;32143;-88
2021/10/12 04:10:33;;;;;;;26.20;17.10;;;;;;;6.74;84.51;96612.77;115525;1198;26648;-87
2021/10/12 04:13:01;;;;;;;27.30;17.00;;;;;;;6.74;84.58;96612.77;115306;1199;26697;-87
2021/10/12 04:15:31;;;;;;;23.10;16.00;;;;;;;6.77;84.62;96610.50;115390;1199;26559;-88
2021/10/12 04:17:59;;;;;;;24.50;16.00;;;;;;;6.78;84.74;96605.65;115353;1199;27533;-88
2021/10/12 04:20:27;;;;;;;27.30;17.20;;;;;;;6.78;84.45;96608.08;115406;1199;27836;-88
2021/10/12 04:22:57;;;;;;;42.60;34.60;;;;;;;6.80;84.63;96607.66;115564;1198;27339;-88
2021/10/12 04:25:26;;;;;;;26.30;17.10;;;;;;;6.77;84.90;96607.38;115478;1198;28562;-88
2021/10/12 04:27:55;;;;;;;21.90;14.10;;;;;;;6.70;84.93;96606.85;115162;1200;32202;-88
2021/10/12 04:30:23;;;;;;;19.00;12.60;;;;;;;6.67;84.78;96604.41;115338;1199;27128;-86
2021/10/12 04:32:51;;;;;;;22.30;16.30;;;;;;;6.66;85.15;96602.19;115399;1199;28072;-87
2021/10/12 04:35:19;;;;;;;23.10;16.10;;;;;;;6.62;85.44;96602.91;115298;1195;26842;-88
2021/10/12 04:37:47;;;;;;;21.90;15.60;;;;;;;6.60;85.23;96604.87;115457;1199;24694;-87
2021/10/12 04:40:15;;;;;;;20.40;14.30;;;;;;;6.59;85.49;96605.60;115394;1199;36356;-88
2021/10/12 04:42:43;;;;;;;26.20;18.00;;;;;;;6.58;85.49;96605.08;115375;1199;27354;-88
2021/10/12 04:45:11;;;;;;;23.00;16.30;;;;;;;6.56;85.55;96606.44;115425;1199;26552;-88
2021/10/12 04:47:40;;;;;;;43.70;25.80;;;;;;;6.53;85.67;96605.63;115383;1193;25385;-88
2021/10/12 04:50:09;;;;;;;42.50;24.80;;;;;;;6.51;85.70;96600.92;115557;1199;33753;-86
2021/10/12 04:52:40;;;;;;;20.90;13.60;;;;;;;6.49;85.68;96597.28;115210;1199;29907;-87
2021/10/12 04:55:09;;;;;;;24.40;15.90;;;;;;;6.49;85.73;96593.39;115495;1199;27173;-88
2021/10/12 04:57:37;;;;;;;25.30;17.40;;;;;;;6.46;85.90;96590.39;115266;1199;28973;-87
2021/10/12 05:00:08;;;;;;;19.90;11.70;;;;;;;6.43;85.60;96591.06;115522;1199;29878;-87
2021/10/12 05:02:36;;;;;;;16.80;12.00;;;;;;;6.40;85.61;96584.25;115347;1199;32595;-87
2021/10/12 05:05:05;;;;;;;16.90;11.40;;;;;;;6.37;85.57;96584.34;115382;1194;44343;-87
2021/10/12 05:07:34;;;;;;;16.00;11.80;;;;;;;6.34;85.51;96583.46;115483;1199;33295;-88
2021/10/12 05:10:02;;;;;;;18.70;12.60;;;;;;;6.30;85.47;96582.20;115534;1198;25920;-87
2021/10/12 05:12:31;;;;;;;20.00;12.10;;;;;;;6.25;85.27;96586.91;115305;1199;32509;-87
2021/10/12 05:14:59;;;;;;;19.30;13.80;;;;;;;6.22;85.26;96583.80;115392;1199;29950;-88
2021/10/12 05:17:33;;;;;;;16.00;11.50;;;;;;;6.20;85.31;96586.98;115362;1199;29633;-88
2021/10/12 05:20:02;;;;;;;18.00;13.10;;;;;;;6.19;85.30;96586.12;115357;1199;28656;-88
2021/10/12 05:22:31;;;;;;;18.30;11.20;;;;;;;6.20;85.19;96585.10;115400;1199;34647;-87
2021/10/12 05:25:00;;;;;;;16.70;11.20;;;;;;;6.20;85.00;96582.83;115361;1199;29961;-88
2021/10/12 05:27:28;;;;;;;15.20;9.40;;;;;;;6.22;85.13;96584.95;115459;1198;31870;-87
2021/10/12 05:29:56;;;;;;;14.90;9.70;;;;;;;6.26;85.03;96581.87;115414;1199;29124;-88
2021/10/12 05:32:24;;;;;;;15.70;10.50;;;;;;;6.32;84.79;96585.48;115419;1198;26549;-88
2021/10/12 05:34:53;;;;;;;14.30;8.40;;;;;;;6.36;84.56;96582.44;115357;1198;28830;-88
2021/10/12 05:37:21;;;;;;;13.20;8.20;;;;;;;6.66;84.84;96581.27;115363;1199;36069;-88
2021/10/12 05:39:49;;;;;;;14.00;8.00;;;;;;;7.26;84.58;96581.91;115344;1199;36820;-88
2021/10/12 05:42:17;;;;;;;13.30;8.80;;;;;;;7.80;83.66;96584.15;115529;1198;25766;-88
2021/10/12 05:44:45;;;;;;;12.80;9.00;;;;;;;8.42;82.90;96579.43;115463;1199;27623;-88
2021/10/12 05:47:13;;;;;;;14.70;9.30;;;;;;;9.11;82.03;96579.43;115432;1198;27620;-88
2021/10/12 05:49:42;;;;;;;12.40;9.50;;;;;;;9.68;80.38;96578.90;115373;1199;33374;-88
2021/10/12 05:52:13;;;;;;;15.00;10.20;;;;;;;10.18;79.20;96575.79;115254;1200;33348;-88
2021/10/12 05:54:48;;;;;;;13.80;10.30;;;;;;;10.76;78.36;96573.75;115190;1200;28497;-87
2021/10/12 05:57:22;;;;;;;15.00;9.50;;;;;;;11.33;76.71;96572.30;115490;1199;29437;-88
2021/10/12 05:59:51;;;;;;;12.90;9.00;;;;;;;11.90;75.61;96569.46;115213;1199;46789;-88
2021/10/12 06:02:19;;;;;;;12.00;8.10;;;;;;;12.38;74.37;96563.70;115341;1199;33407;-87
2021/10/12 06:04:47;;;;;;;11.40;8.30;;;;;;;12.98;73.65;96566.52;115462;1192;27652;-88
2021/10/12 06:07:15;;;;;;;11.50;7.30;;;;;;;13.65;72.04;96560.39;115484;1198;28267;-88
2021/10/12 06:09:43;;;;;;;13.20;7.20;;;;;;;13.81;69.47;96558.09;115345;1199;31384;-88
2021/10/12 06:12:10;;;;;;;12.20;7.50;;;;;;;13.51;68.04;96554.14;115384;1199;28595;-88
2021/10/12 06:14:39;;;;;;;11.80;7.40;;;;;;;13.08;67.50;96552.34;115363;1193;28508;-87
2021/10/12 06:17:06;;;;;;;11.30;6.70;;;;;;;12.97;66.91;96556.41;115416;1199;25994;-86
2021/10/12 06:19:34;;;;;;;9.40;6.60;;;;;;;12.82;66.59;96548.98;115419;1197;26355;-88
2021/10/12 06:22:03;;;;;;;10.40;6.20;;;;;;;12.96;66.26;96546.92;115192;1200;31738;-88
2021/10/12 06:24:31;;;;;;;12.20;7.90;;;;;;;13.45;66.48;96550.42;115308;1199;26726;-87
2021/10/12 06:26:59;;;;;;;10.10;6.50;;;;;;;14.22;65.68;96552.25;115404;1199;26918;-88
2021/10/12 06:29:27;;;;;;;9.70;6.30;;;;;;;14.25;63.43;96553.42;115356;1199;31455;-88
2021/10/12 06:31:55;;;;;;;12.40;7.60;;;;;;;13.58;62.50;96557.33;115366;1199;27705;-88
2021/10/12 06:34:23;;;;;;;9.80;6.70;;;;;;;12.61;63.29;96561.09;115373;1199;28870;-88
2021/10/12 06:36:52;;;;;;;9.40;6.70;;;;;;;12.01;63.60;96562.09;115409;1199;28026;-88
2021/10/12 06:39:20;;;;;;;11.40;7.20;;;;;;;11.29;64.31;96567.20;115206;1199;32277;-87
2021/10/12 06:41:49;;;;;;;10.70;6.90;;;;;;;10.80;65.37;96563.30;115426;1196;29404;-87
2021/10/12 06:44:17;;;;;;;13.80;7.50;;;;;;;10.31;65.93;96563.89;115555;1199;25411;-87
2021/10/12 06:46:46;;;;;;;10.00;7.20;;;;;;;9.85;66.85;96563.98;115436;1199;25314;-87
2021/10/12 06:49:14;;;;;;;10.20;7.50;;;;;;;9.54;67.67;96569.60;115507;1199;27971;-87
2021/10/12 06:51:43;;;;;;;12.80;8.30;;;;;;;9.30;68.49;96565.26;115490;1198;26439;-87
2021/10/12 06:54:11;;;;;;;14.00;7.70;;;;;;;9.05;69.05;96567.24;115412;1193;34314;-87
2021/10/12 06:56:39;;;;;;;14.10;7.80;;;;;;;8.78;69.83;96561.23;115460;1199;27658;-87
2021/10/12 06:59:08;;;;;;;12.30;8.20;;;;;;;8.51;70.60;96565.55;115388;1199;29560;-87
2021/10/12 07:01:36;;;;;;;19.40;9.50;;;;;;;8.36;71.24;96566.48;115496;1199;41262;-87
2021/10/12 07:04:04;;;;;;;16.90;8.60;;;;;;;8.26;71.99;96566.36;115385;1199;30875;-87
2021/10/12 07:06:32;;;;;;;13.20;8.30;;;;;;;8.26;72.31;96567.63;115521;1198;33773;-87
2021/10/12 07:09:00;;;;;;;13.50;8.50;;;;;;;8.23;72.69;96566.79;115458;1199;29936;-86
2021/10/12 07:11:28;;;;;;;14.00;8.40;;;;;;;8.12;73.33;96570.73;115317;1199;31957;-87
2021/10/12 07:13:57;;;;;;;15.30;8.70;;;;;;;8.02;73.72;96570.84;115576;1192;29482;-87
2021/10/12 07:16:25;;;;;;;13.30;9.10;;;;;;;8.00;74.29;96572.04;115502;1198;29540;-87
2021/10/12 07:18:53;;;;;;;16.50;9.70;;;;;;;7.95;74.44;96566.98;115469;1198;29039;-87
2021/10/12 07:21:21;;;;;;;17.30;10.60;;;;;;;7.94;74.65;96565.18;115482;1198;31010;-87
2021/10/12 07:23:49;;;;;;;15.20;10.10;;;;;;;7.91;75.12;96571.72;115205;1200;33174;-86
2021/10/12 07:26:18;;;;;;;16.00;9.90;;;;;;;7.88;75.40;96574.92;115405;1199;30458;-87
2021/10/12 07:28:46;;;;;;;14.70;9.50;;;;;;;7.87;75.54;96571.48;115519;1199;27081;-87
2021/10/12 07:31:14;;;;;;;19.00;10.90;;;;;;;7.84;75.73;96569.53;115481;1193;30439;-87
2021/10/12 07:33:42;;;;;;;18.30;9.20;;;;;;;7.84;76.04;96569.11;115543;1199;28464;-87
2021/10/12 07:36:10;;;;;;;14.20;8.80;;;;;;;7.85;76.18;96566.58;115576;1198;25754;-87
2021/10/12 07:38:38;;;;;;;14.00;9.60;;;;;;;7.84;76.13;96565.52;115178;1199;25745;-87
2021/10/12 07:41:07;;;;;;;15.00;9.80;;;;;;;7.84;76.08;96566.05;115334;1199;27591;-87
2021/10/12 07:43:35;;;;;;;15.80;10.20;;;;;;;7.85;76.29;96564.73;115377;1199;27546;-87
2021/10/12 07:46:03;;;;;;;15.80;9.10;;;;;;;7.84;76.31;96566.73;115400;1199;33293;-87
2021/10/12 07:48:32;;;;;;;13.40;8.10;;;;;;;7.81;76.41;96566.11;115204;1200;26071;-87
2021/10/12 07:51:00;;;;;;;11.00;8.10;;;;;;;7.80;76.66;96565.90;115412;1199;26268;-87
2021/10/12 07:53:29;;;;;;;15.60;9.20;;;;;;;7.78;76.62;96565.68;115501;1193;26420;-87
2021/10/12 07:55:59;;;;;;;14.60;8.70;;;;;;;7.79;76.59;96565.21;115382;1199;26984;-87
2021/10/12 07:58:27;;;;;;;11.90;8.50;;;;;;;7.82;76.60;96565.36;115445;1199;26998;-87
2021/10/12 08:00:56;;;;;;;11.00;7.90;;;;;;;7.87;76.96;96556.67;115383;1199;27485;-86
2021/10/12 08:03:24;;;;;;;11.50;7.20;;;;;;;7.94;77.00;96559.11;115243;1200;26531;-87
2021/10/12 08:05:52;;;;;;;11.10;7.60;;;;;;;7.98;76.84;96557.63;115411;1199;26951;-89
2021/10/12 08:08:20;;;;;;;12.20;7.40;;;;;;;7.98;76.74;96552.71;115378;1199;37327;-87
2021/10/12 08:10:48;;;;;;;9.10;6.20;;;;;;;7.98;76.82;96553.35;115423;1199;28914;-87
2021/10/12 08:13:17;;;;;;;8.70;6.00;;;;;;;8.04;76.74;96550.67;115468;1176;27674;-87
2021/10/12 08:15:50;;;;;;;12.50;6.40;;;;;;;8.16;76.65;96547.61;115436;1199;26573;-88
2021/10/12 08:18:20;;;;;;;12.10;6.50;;;;;;;8.26;76.40;96542.70;115355;1199;25877;-87
2021/10/12 08:20:48;;;;;;;12.40;7.10;;;;;;;8.21;76.17;96547.83;115638;1198;27469;-87
2021/10/12 08:23:17;;;;;;;10.00;6.30;;;;;;;8.11;76.25;96545.44;115432;1199;24592;-87
2021/10/12 08:25:45;;;;;;;10.40;6.70;;;;;;;8.06;76.50;96543.39;115537;1192;26031;-87
2021/10/12 08:28:12;;;;;;;10.00;6.00;;;;;;;8.05;76.57;96541.98;115547;1199;26655;-87
2021/10/12 08:30:41;;;;;;;11.40;6.60;;;;;;;8.09;76.64;96540.91;115442;1193;28027;-87
2021/10/12 08:33:09;;;;;;;11.50;7.10;;;;;;;8.05;76.66;96543.29;115511;1198;29148;-87
2021/10/12 08:35:37;;;;;;;9.10;6.30;;;;;;;7.91;77.11;96541.15;115508;1199;28598;-87
2021/10/12 08:38:05;;;;;;;10.90;6.00;;;;;;;7.77;77.84;96542.35;115215;1199;26144;-87
2021/10/12 08:44:05;;;;;;;11.30;7.30;;;;;;;7.72;78.84;96548.44;115565;1198;38426;-87
2021/10/12 08:46:35;;;;;;;11.50;6.10;;;;;;;7.72;79.07;96545.44;115423;1193;26907;-87
2021/10/12 08:49:03;;;;;;;10.70;7.10;;;;;;;7.75;79.47;96546.15;115365;1199;27754;-88
2021/10/12 08:51:31;;;;;;;12.30;7.60;;;;;;;7.75;79.26;96549.00;115399;1199;28171;-88
2021/10/12 08:53:59;;;;;;;11.30;7.40;;;;;;;7.77;79.31;96546.31;115327;1198;26680;-86
2021/10/12 09:00:27;;;;;;;10.20;5.80;;;;;;;7.68;79.76;96544.75;114986;1201;28139;-88
2021/10/12 09:23:43;;;;;;;12.00;7.80;;;;;;;8.09;80.53;96536.73;114885;1197;32685;-87
2021/10/12 09:26:21;;;;;;;12.50;8.30;;;;;;;8.13;80.15;96534.14;114880;1201;47361;-88
2021/10/12 09:28:50;;;;;;;11.00;7.80;;;;;;;8.10;80.01;96534.94;115069;1197;36175;-87
2021/10/12 09:31:19;;;;;;;9.10;6.70;;;;;;;8.02;80.29;96532.72;115163;1193;31011;-87
2021/10/12 09:33:49;;;;;;;10.70;7.90;;;;;;;7.96;80.55;96524.80;115495;1199;28073;-87
2021/10/12 09:36:28;;;;;;;12.70;9.10;;;;;;;8.00;81.08;96530.71;115600;1198;26605;-87
2021/10/12 09:38:57;;;;;;;11.70;7.80;;;;;;;8.12;81.10;96524.48;115419;1198;29924;-87
2021/10/12 09:41:27;;;;;;;11.00;7.90;;;;;;;8.14;80.84;96523.69;115327;1199;26511;-87
2021/10/12 09:44:11;;;;;;;12.40;7.90;;;;;;;8.21;80.67;96518.73;115393;1198;53848;-88
2021/10/12 09:46:41;;;;;;;15.20;8.40;;;;;;;8.35;80.44;96514.46;115327;1198;28300;-88
2021/10/12 09:49:15;;;;;;;13.50;7.90;;;;;;;8.42;79.82;96509.06;115554;1199;31304;-88
2021/10/12 09:51:53;;;;;;;11.50;7.20;;;;;;;8.46;78.94;96506.59;115366;1199;27979;-88
2021/10/12 09:54:23;;;;;;;12.80;7.30;;;;;;;8.57;78.66;96507.56;115460;1199;31272;-86
2021/10/12 09:56:52;;;;;;;14.80;7.60;;;;;;;8.78;78.08;96499.16;115431;1199;26015;-88
2021/10/12 09:59:20;;;;;;;12.20;7.90;;;;;;;8.76;76.87;96496.33;115485;1198;29547;-85
2021/10/12 10:01:50;;;;;;;15.40;8.10;;;;;;;8.67;76.84;96493.27;115378;1199;26946;-87
2021/10/12 10:04:19;;;;;;;11.20;7.20;;;;;;;8.62;76.75;96492.02;115216;1193;29694;-86
2021/10/12 10:06:49;;;;;;;11.40;7.60;;;;;;;8.64;76.79;96498.52;115507;1198;29387;-86
2021/10/12 10:09:21;;;;;;;13.30;8.50;;;;;;;8.74;76.50;96496.44;115487;1199;26653;-88
2021/10/12 10:11:50;;;;;;;13.10;6.90;;;;;;;8.73;76.14;96496.17;115483;1192;26777;-87
2021/10/12 10:14:19;;;;;;;8.90;6.50;;;;;;;8.69;75.95;96494.16;115526;1193;32080;-87
2021/10/12 10:16:51;;;;;;;12.50;7.20;;;;;;;8.63;75.60;96496.25;115630;1198;30126;-87
2021/10/12 10:19:24;;;;;;;11.00;7.80;;;;;;;8.49;75.32;96497.70;115565;1199;30719;-85
2021/10/12 10:21:52;;;;;;;13.20;8.50;;;;;;;8.37;75.34;96497.02;115530;1199;47118;-87
2021/10/12 10:24:41;;;;;;;9.80;6.70;;;;;;;8.27;75.39;96494.05;115564;1198;28807;-87
2021/10/12 10:27:31;;;;;;;12.70;7.40;;;;;;;8.17;75.42;96490.41;115481;1199;28538;-87
2021/10/12 10:30:28;;;;;;;14.70;8.10;;;;;;;8.12;75.82;96495.06;115334;1199;29262;-88
2021/10/12 10:32:58;;;;;;;10.30;7.20;;;;;;;8.16;76.01;96490.73;115441;1198;34366;-88
2021/10/12 10:35:49;;;;;;;;;;;;;;;8.26;76.56;96489.09;115538;1198;42376;-88
2021/10/12 10:38:30;;;;;;;15.20;7.90;;;;;;;8.43;76.08;96482.81;115389;1198;29702;-87
2021/10/12 10:41:26;;;;;;;11.10;7.60;;;;;;;8.48;75.50;96484.13;115232;1199;30887;-88
2021/10/12 10:44:00;;;;;;;11.60;6.30;;;;;;;8.53;74.90;96480.89;115455;1199;30955;-87
2021/10/12 10:46:43;;;;;;;11.30;6.20;;;;;;;8.59;74.83;96476.80;115554;1198;31176;-88
2021/10/12 10:49:17;;;;;;;10.30;6.20;;;;;;;8.74;75.14;96477.66;115479;1198;28216;-86
2021/10/12 10:51:59;;;;;;;11.90;7.00;;;;;;;8.90;74.80;96474.39;115366;1199;29073;-87
2021/10/12 10:55:02;;;;;;;11.20;7.10;;;;;;;9.06;74.62;96469.08;115429;1199;27557;-87
2021/10/12 10:57:31;;;;;;;11.90;7.10;;;;;;;9.37;74.42;96462.58;115148;1199;29918;-87
2021/10/12 11:00:24;;;;;;;13.60;6.20;;;;;;;9.52;73.88;96459.73;115432;1198;25901;-86
2021/10/12 11:02:54;;;;;;;11.80;6.90;;;;;;;9.52;72.99;96453.85;115215;1184;25397;-87
2021/10/12 11:05:45;;;;;;;9.30;6.60;;;;;;;9.38;72.05;96450.14;115577;1198;25825;-87
2021/10/12 11:08:17;;;;;;;10.60;6.80;;;;;;;9.12;71.50;96445.27;115470;1199;26729;-86
2021/10/12 11:10:47;;;;;;;11.60;6.80;;;;;;;9.05;71.56;96447.73;115404;1199;26102;-86
2021/10/12 11:13:27;;;;;;;;;;;;;;;9.19;72.28;96441.63;115528;1199;26080;-86
2021/10/12 11:15:55;;;;;;;8.90;5.90;;;;;;;9.26;71.85;96438.14;115471;1199;30656;-87
2021/10/12 11:18:23;;;;;;;11.40;6.70;;;;;;;9.17;71.70;96437.93;115530;1198;26273;-86
2021/10/12 11:20:55;;;;;;;12.10;7.00;;;;;;;9.11;72.12;96434.84;115490;1199;27055;-87
2021/10/12 11:23:26;;;;;;;9.70;6.90;;;;;;;9.18;72.55;96434.55;115510;1192;26606;-86
2021/10/12 11:25:58;;;;;;;9.20;6.50;;;;;;;9.40;73.29;96433.77;115232;1199;25898;-86
2021/10/12 11:28:28;;;;;;;8.80;6.00;;;;;;;9.49;72.56;96428.59;115443;1199;28273;-86
2021/10/12 11:31:00;;;;;;;9.70;5.20;;;;;;;9.36;72.60;96425.39;115530;1199;37837;-86
2021/10/12 11:33:34;;;;;;;10.30;5.60;;;;;;;9.35;72.76;96420.95;115518;1198;28982;-85
2021/10/12 11:36:05;;;;;;;9.60;5.80;;;;;;;9.30;72.21;96420.61;115172;1200;25386;-86
2021/10/12 11:38:33;;;;;;;;;;;;;;;9.24;71.87;96419.20;115366;1193;34721;-87
2021/10/12 11:41:12;;;;;;;8.80;5.50;;;;;;;9.22;71.92;96418.33;115308;1199;25542;-87
2021/10/12 11:43:42;;;;;;;10.20;5.50;;;;;;;9.21;71.94;96413.31;115241;1199;28504;-86
2021/10/12 11:46:11;;;;;;;8.50;5.30;;;;;;;9.20;71.65;96417.87;115381;1199;27863;-86
2021/10/12 11:48:40;;;;;;;10.10;4.90;;;;;;;9.16;71.56;96410.27;115389;1199;34226;-87
2021/10/12 11:51:20;;;;;;;10.70;4.80;;;;;;;9.13;71.67;96411.66;115529;1198;26327;-86
2021/10/12 11:53:50;;;;;;;9.30;5.10;;;;;;;9.09;71.37;96413.80;115519;1199;28889;-86
2021/10/12 11:56:20;;;;;;;8.20;5.10;;;;;;;9.06;71.35;96403.56;115563;1199;27103;-86
2021/10/12 11:58:48;;;;;;;;;;;;;;;9.08;71.37;96406.61;115356;1199;32068;-87
2021/10/12 12:01:28;;;;;;;10.90;5.80;;;;;;;9.07;71.30;96402.81;115553;1199;26291;-87